sensor_id;sensor_type;location;lat;lon;timestamp;P1;durP1;ratioP1;P2;durP2;ratioP2
33327;SDS011;19692;52.998;9.116;2023-04-25T00:02:20;11.17;;;7.23;;
33327;SDS011;19692;52.998;9.116;2023-04-25T00:04:47;13.80;;;7.47;;
33327;SDS011;19692;52.998;9.116;2023-04-25T00:07:14;10.50;;;7.10;;
33327;SDS011;19692;52.998;9.116;2023-04-25T00:09:41;10.23;;;7.43;;
33327;SDS011;19692;52.998;9.116;2023-04-25T00:12:07;10.90;;;6.20;;
33327;SDS011;19692;52.998;9.116;2023-04-25T00:14:32;12.03;;;8.07;;
33327;SDS011;19692;52.998;9.116;2023-04-25T00:17:01;12.83;;;6.47;;
33327;SDS011;19692;52.998;9.116;2023-04-25T00:19:28;14.30;;;6.17;;
33327;SDS011;19692;52.998;9.116;2023-04-25T00:21:54;12.23;;;7.00;;
33327;SDS011;19692;52.998;9.116;2023-04-25T00:24:20;12.03;;;7.00;;
33327;SDS011;19692;52.998;9.116;2023-04-25T00:26:46;14.53;;;6.80;;
33327;SDS011;19692;52.998;9.116;2023-04-25T00:29:12;17.17;;;7.23;;
33327;SDS011;19692;52.998;9.116;2023-04-25T00:31:38;20.83;;;7.47;;
33327;SDS011;19692;52.998;9.116;2023-04-25T00:34:04;15.10;;;6.70;;
33327;SDS011;19692;52.998;9.116;2023-04-25T00:36:31;20.53;;;6.90;;
33327;SDS011;19692;52.998;9.116;2023-04-25T00:38:57;18.17;;;7.17;;
33327;SDS011;19692;52.998;9.116;2023-04-25T00:41:23;15.37;;;6.07;;
33327;SDS011;19692;52.998;9.116;2023-04-25T00:43:51;20.27;;;6.80;;
33327;SDS011;19692;52.998;9.116;2023-04-25T00:46:19;16.83;;;6.60;;
33327;SDS011;19692;52.998;9.116;2023-04-25T00:48:44;21.77;;;7.30;;
33327;SDS011;19692;52.998;9.116;2023-04-25T00:51:11;15.30;;;6.40;;
33327;SDS011;19692;52.998;9.116;2023-04-25T00:53:41;27.90;;;6.97;;
33327;SDS011;19692;52.998;9.116;2023-04-25T00:56:07;23.37;;;6.63;;
33327;SDS011;19692;52.998;9.116;2023-04-25T00:58:33;17.87;;;7.23;;
33327;SDS011;19692;52.998;9.116;2023-04-25T01:00:59;15.93;;;6.33;;
33327;SDS011;19692;52.998;9.116;2023-04-25T01:03:26;22.40;;;6.83;;
33327;SDS011;19692;52.998;9.116;2023-04-25T01:05:53;19.57;;;6.50;;
33327;SDS011;19692;52.998;9.116;2023-04-25T01:08:19;24.87;;;7.33;;
33327;SDS011;19692;52.998;9.116;2023-04-25T01:10:48;26.70;;;6.47;;
33327;SDS011;19692;52.998;9.116;2023-04-25T01:13:14;25.50;;;8.57;;
33327;SDS011;19692;52.998;9.116;2023-04-25T01:15:40;21.93;;;6.47;;
33327;SDS011;19692;52.998;9.116;2023-04-25T01:18:06;17.37;;;6.33;;
33327;SDS011;19692;52.998;9.116;2023-04-25T01:20:32;22.97;;;7.27;;
33327;SDS011;19692;52.998;9.116;2023-04-25T01:22:59;29.90;;;7.97;;
33327;SDS011;19692;52.998;9.116;2023-04-25T01:25:27;20.53;;;7.87;;
33327;SDS011;19692;52.998;9.116;2023-04-25T01:27:52;25.07;;;6.67;;
33327;SDS011;19692;52.998;9.116;2023-04-25T01:30:18;18.67;;;5.80;;
33327;SDS011;19692;52.998;9.116;2023-04-25T01:32:44;21.60;;;7.40;;
33327;SDS011;19692;52.998;9.116;2023-04-25T01:35:11;22.07;;;7.33;;
33327;SDS011;19692;52.998;9.116;2023-04-25T01:37:40;16.63;;;6.30;;
33327;SDS011;19692;52.998;9.116;2023-04-25T01:40:08;20.87;;;6.73;;
33327;SDS011;19692;52.998;9.116;2023-04-25T01:42:37;24.07;;;7.30;;
33327;SDS011;19692;52.998;9.116;2023-04-25T01:45:05;26.07;;;6.83;;
33327;SDS011;19692;52.998;9.116;2023-04-25T01:47:32;28.60;;;7.00;;
33327;SDS011;19692;52.998;9.116;2023-04-25T01:50:00;21.30;;;6.73;;
33327;SDS011;19692;52.998;9.116;2023-04-25T01:52:27;26.57;;;7.67;;
33327;SDS011;19692;52.998;9.116;2023-04-25T01:54:53;21.53;;;7.60;;
33327;SDS011;19692;52.998;9.116;2023-04-25T01:57:19;23.93;;;6.60;;
33327;SDS011;19692;52.998;9.116;2023-04-25T01:59:45;21.93;;;6.87;;
33327;SDS011;19692;52.998;9.116;2023-04-25T02:02:11;29.97;;;8.00;;
33327;SDS011;19692;52.998;9.116;2023-04-25T02:04:37;23.87;;;7.37;;
33327;SDS011;19692;52.998;9.116;2023-04-25T02:07:03;18.17;;;6.70;;
33327;SDS011;19692;52.998;9.116;2023-04-25T02:09:29;27.20;;;7.07;;
33327;SDS011;19692;52.998;9.116;2023-04-25T02:11:55;24.07;;;7.70;;
33327;SDS011;19692;52.998;9.116;2023-04-25T02:14:20;22.70;;;6.60;;
33327;SDS011;19692;52.998;9.116;2023-04-25T02:16:46;22.60;;;6.53;;
33327;SDS011;19692;52.998;9.116;2023-04-25T02:19:12;15.77;;;6.87;;
33327;SDS011;19692;52.998;9.116;2023-04-25T02:21:38;26.67;;;6.30;;
33327;SDS011;19692;52.998;9.116;2023-04-25T02:24:03;19.40;;;6.00;;
33327;SDS011;19692;52.998;9.116;2023-04-25T02:26:30;27.13;;;7.87;;
33327;SDS011;19692;52.998;9.116;2023-04-25T02:28:56;21.23;;;5.93;;
33327;SDS011;19692;52.998;9.116;2023-04-25T02:31:22;26.57;;;6.53;;
33327;SDS011;19692;52.998;9.116;2023-04-25T02:33:48;17.37;;;5.87;;
33327;SDS011;19692;52.998;9.116;2023-04-25T02:36:13;18.83;;;6.70;;
33327;SDS011;19692;52.998;9.116;2023-04-25T02:38:40;20.63;;;6.70;;
33327;SDS011;19692;52.998;9.116;2023-04-25T02:41:05;25.07;;;6.70;;
33327;SDS011;19692;52.998;9.116;2023-04-25T02:43:31;20.47;;;6.43;;
33327;SDS011;19692;52.998;9.116;2023-04-25T02:45:57;24.70;;;6.83;;
33327;SDS011;19692;52.998;9.116;2023-04-25T02:48:23;21.83;;;5.83;;
33327;SDS011;19692;52.998;9.116;2023-04-25T02:50:48;22.17;;;5.60;;
33327;SDS011;19692;52.998;9.116;2023-04-25T02:53:14;28.03;;;7.27;;
33327;SDS011;19692;52.998;9.116;2023-04-25T02:55:40;23.60;;;6.90;;
33327;SDS011;19692;52.998;9.116;2023-04-25T02:58:06;21.57;;;6.37;;
33327;SDS011;19692;52.998;9.116;2023-04-25T03:00:32;25.00;;;7.43;;
33327;SDS011;19692;52.998;9.116;2023-04-25T03:02:58;22.40;;;7.07;;
33327;SDS011;19692;52.998;9.116;2023-04-25T03:05:23;22.77;;;7.17;;
33327;SDS011;19692;52.998;9.116;2023-04-25T03:07:49;22.87;;;7.17;;
33327;SDS011;19692;52.998;9.116;2023-04-25T03:10:15;17.70;;;6.17;;
33327;SDS011;19692;52.998;9.116;2023-04-25T03:12:41;18.97;;;7.10;;
33327;SDS011;19692;52.998;9.116;2023-04-25T03:15:06;25.87;;;7.50;;
33327;SDS011;19692;52.998;9.116;2023-04-25T03:17:32;21.17;;;7.03;;
33327;SDS011;19692;52.998;9.116;2023-04-25T03:19:58;24.87;;;7.23;;
33327;SDS011;19692;52.998;9.116;2023-04-25T03:22:24;24.03;;;6.47;;
33327;SDS011;19692;52.998;9.116;2023-04-25T03:24:50;18.50;;;6.27;;
33327;SDS011;19692;52.998;9.116;2023-04-25T03:27:16;18.20;;;6.57;;
33327;SDS011;19692;52.998;9.116;2023-04-25T03:29:42;19.63;;;7.30;;
33327;SDS011;19692;52.998;9.116;2023-04-25T03:32:08;15.27;;;6.10;;
33327;SDS011;19692;52.998;9.116;2023-04-25T03:34:34;22.87;;;6.90;;
33327;SDS011;19692;52.998;9.116;2023-04-25T03:37:00;22.70;;;6.97;;
33327;SDS011;19692;52.998;9.116;2023-04-25T03:39:26;25.20;;;6.43;;
33327;SDS011;19692;52.998;9.116;2023-04-25T03:41:52;19.37;;;6.20;;
33327;SDS011;19692;52.998;9.116;2023-04-25T03:44:18;22.30;;;6.83;;
33327;SDS011;19692;52.998;9.116;2023-04-25T03:46:43;19.70;;;7.30;;
33327;SDS011;19692;52.998;9.116;2023-04-25T03:49:09;26.20;;;7.23;;
33327;SDS011;19692;52.998;9.116;2023-04-25T03:51:35;22.23;;;7.43;;
33327;SDS011;19692;52.998;9.116;2023-04-25T03:54:01;17.13;;;6.07;;
33327;SDS011;19692;52.998;9.116;2023-04-25T03:56:26;26.53;;;6.60;;
33327;SDS011;19692;52.998;9.116;2023-04-25T03:58:52;19.33;;;6.50;;
33327;SDS011;19692;52.998;9.116;2023-04-25T04:01:18;23.20;;;6.43;;
33327;SDS011;19692;52.998;9.116;2023-04-25T04:03:44;28.43;;;6.13;;
33327;SDS011;19692;52.998;9.116;2023-04-25T04:06:10;17.30;;;6.20;;
33327;SDS011;19692;52.998;9.116;2023-04-25T04:08:35;19.47;;;6.20;;
33327;SDS011;19692;52.998;9.116;2023-04-25T04:11:01;18.97;;;5.67;;
33327;SDS011;19692;52.998;9.116;2023-04-25T04:13:27;20.53;;;6.27;;
33327;SDS011;19692;52.998;9.116;2023-04-25T04:15:54;27.27;;;6.93;;
33327;SDS011;19692;52.998;9.116;2023-04-25T04:18:20;20.80;;;6.37;;
33327;SDS011;19692;52.998;9.116;2023-04-25T04:20:47;23.53;;;6.23;;
33327;SDS011;19692;52.998;9.116;2023-04-25T04:23:13;19.77;;;5.90;;
33327;SDS011;19692;52.998;9.116;2023-04-25T04:25:39;19.20;;;6.17;;
33327;SDS011;19692;52.998;9.116;2023-04-25T04:28:05;22.87;;;7.40;;
33327;SDS011;19692;52.998;9.116;2023-04-25T04:30:32;18.07;;;6.27;;
33327;SDS011;19692;52.998;9.116;2023-04-25T04:33:01;17.73;;;6.27;;
33327;SDS011;19692;52.998;9.116;2023-04-25T04:35:27;21.33;;;6.57;;
33327;SDS011;19692;52.998;9.116;2023-04-25T04:37:53;21.87;;;5.93;;
33327;SDS011;19692;52.998;9.116;2023-04-25T04:40:19;21.40;;;6.27;;
33327;SDS011;19692;52.998;9.116;2023-04-25T04:42:46;17.13;;;6.07;;
33327;SDS011;19692;52.998;9.116;2023-04-25T04:45:13;22.33;;;6.70;;
33327;SDS011;19692;52.998;9.116;2023-04-25T04:47:39;18.57;;;6.33;;
33327;SDS011;19692;52.998;9.116;2023-04-25T04:50:08;23.33;;;6.97;;
33327;SDS011;19692;52.998;9.116;2023-04-25T04:52:35;20.33;;;5.67;;
33327;SDS011;19692;52.998;9.116;2023-04-25T04:55:02;28.17;;;6.23;;
33327;SDS011;19692;52.998;9.116;2023-04-25T04:57:30;24.27;;;6.90;;
33327;SDS011;19692;52.998;9.116;2023-04-25T04:59:57;16.07;;;6.37;;
33327;SDS011;19692;52.998;9.116;2023-04-25T05:02:23;19.00;;;6.80;;
33327;SDS011;19692;52.998;9.116;2023-04-25T05:04:50;20.90;;;6.93;;
33327;SDS011;19692;52.998;9.116;2023-04-25T05:07:17;19.73;;;5.80;;
33327;SDS011;19692;52.998;9.116;2023-04-25T05:09:43;17.87;;;6.43;;
33327;SDS011;19692;52.998;9.116;2023-04-25T05:12:09;19.13;;;5.47;;
33327;SDS011;19692;52.998;9.116;2023-04-25T05:14:35;16.50;;;5.90;;
33327;SDS011;19692;52.998;9.116;2023-04-25T05:17:00;20.87;;;6.33;;
33327;SDS011;19692;52.998;9.116;2023-04-25T05:19:28;19.03;;;6.47;;
33327;SDS011;19692;52.998;9.116;2023-04-25T05:21:54;20.57;;;6.27;;
33327;SDS011;19692;52.998;9.116;2023-04-25T05:24:20;20.47;;;5.60;;
33327;SDS011;19692;52.998;9.116;2023-04-25T05:26:45;15.97;;;5.17;;
33327;SDS011;19692;52.998;9.116;2023-04-25T05:29:11;19.07;;;5.80;;
33327;SDS011;19692;52.998;9.116;2023-04-25T05:31:37;17.57;;;5.43;;
33327;SDS011;19692;52.998;9.116;2023-04-25T05:34:03;14.33;;;5.30;;
33327;SDS011;19692;52.998;9.116;2023-04-25T05:36:29;17.40;;;5.47;;
33327;SDS011;19692;52.998;9.116;2023-04-25T05:38:55;15.30;;;5.70;;
33327;SDS011;19692;52.998;9.116;2023-04-25T05:41:21;14.57;;;5.17;;
33327;SDS011;19692;52.998;9.116;2023-04-25T05:43:47;16.83;;;5.10;;
33327;SDS011;19692;52.998;9.116;2023-04-25T05:46:14;15.87;;;6.37;;
33327;SDS011;19692;52.998;9.116;2023-04-25T05:48:43;15.33;;;5.50;;
33327;SDS011;19692;52.998;9.116;2023-04-25T05:51:09;14.93;;;5.90;;
33327;SDS011;19692;52.998;9.116;2023-04-25T05:53:35;17.47;;;5.20;;
33327;SDS011;19692;52.998;9.116;2023-04-25T05:56:01;11.83;;;4.80;;
33327;SDS011;19692;52.998;9.116;2023-04-25T05:58:27;13.10;;;4.87;;
33327;SDS011;19692;52.998;9.116;2023-04-25T06:00:53;17.07;;;6.03;;
33327;SDS011;19692;52.998;9.116;2023-04-25T06:03:20;17.70;;;4.97;;
33327;SDS011;19692;52.998;9.116;2023-04-25T06:05:46;17.33;;;5.40;;
33327;SDS011;19692;52.998;9.116;2023-04-25T06:08:12;14.10;;;5.43;;
33327;SDS011;19692;52.998;9.116;2023-04-25T06:10:37;20.07;;;5.80;;
33327;SDS011;19692;52.998;9.116;2023-04-25T06:13:04;11.67;;;5.10;;
33327;SDS011;19692;52.998;9.116;2023-04-25T06:15:30;16.40;;;5.23;;
33327;SDS011;19692;52.998;9.116;2023-04-25T06:17:57;16.60;;;5.90;;
33327;SDS011;19692;52.998;9.116;2023-04-25T06:20:23;14.43;;;4.90;;
33327;SDS011;19692;52.998;9.116;2023-04-25T06:22:49;18.37;;;4.77;;
33327;SDS011;19692;52.998;9.116;2023-04-25T06:25:19;15.20;;;4.47;;
33327;SDS011;19692;52.998;9.116;2023-04-25T06:27:45;10.20;;;5.20;;
33327;SDS011;19692;52.998;9.116;2023-04-25T06:30:11;12.83;;;4.80;;
33327;SDS011;19692;52.998;9.116;2023-04-25T06:32:37;16.73;;;5.40;;
33327;SDS011;19692;52.998;9.116;2023-04-25T06:35:04;9.13;;;4.30;;
33327;SDS011;19692;52.998;9.116;2023-04-25T06:37:30;10.53;;;4.90;;
33327;SDS011;19692;52.998;9.116;2023-04-25T06:39:56;15.73;;;5.50;;
33327;SDS011;19692;52.998;9.116;2023-04-25T06:42:22;18.03;;;4.83;;
33327;SDS011;19692;52.998;9.116;2023-04-25T06:44:47;12.90;;;5.10;;
33327;SDS011;19692;52.998;9.116;2023-04-25T06:47:13;12.30;;;4.57;;
33327;SDS011;19692;52.998;9.116;2023-04-25T06:49:39;12.63;;;4.80;;
33327;SDS011;19692;52.998;9.116;2023-04-25T06:52:05;14.10;;;5.57;;
33327;SDS011;19692;52.998;9.116;2023-04-25T06:54:31;12.50;;;5.13;;
33327;SDS011;19692;52.998;9.116;2023-04-25T06:56:57;13.10;;;4.17;;
33327;SDS011;19692;52.998;9.116;2023-04-25T06:59:23;12.80;;;4.30;;
33327;SDS011;19692;52.998;9.116;2023-04-25T07:01:48;8.60;;;3.97;;
33327;SDS011;19692;52.998;9.116;2023-04-25T07:04:14;12.37;;;4.03;;
33327;SDS011;19692;52.998;9.116;2023-04-25T07:06:40;9.67;;;3.93;;
33327;SDS011;19692;52.998;9.116;2023-04-25T07:09:10;11.70;;;4.97;;
33327;SDS011;19692;52.998;9.116;2023-04-25T07:11:37;12.97;;;4.63;;
33327;SDS011;19692;52.998;9.116;2023-04-25T07:14:03;11.93;;;5.37;;
33327;SDS011;19692;52.998;9.116;2023-04-25T07:16:29;12.27;;;4.40;;
33327;SDS011;19692;52.998;9.116;2023-04-25T07:18:55;11.20;;;4.30;;
33327;SDS011;19692;52.998;9.116;2023-04-25T07:21:20;12.60;;;3.93;;
33327;SDS011;19692;52.998;9.116;2023-04-25T07:23:46;14.00;;;4.30;;
33327;SDS011;19692;52.998;9.116;2023-04-25T07:26:12;10.13;;;4.87;;
33327;SDS011;19692;52.998;9.116;2023-04-25T07:28:38;11.50;;;3.73;;
33327;SDS011;19692;52.998;9.116;2023-04-25T07:31:04;15.47;;;5.23;;
33327;SDS011;19692;52.998;9.116;2023-04-25T07:33:30;11.33;;;5.03;;
33327;SDS011;19692;52.998;9.116;2023-04-25T07:35:56;9.70;;;3.93;;
33327;SDS011;19692;52.998;9.116;2023-04-25T07:38:22;7.53;;;4.00;;
33327;SDS011;19692;52.998;9.116;2023-04-25T07:40:51;13.70;;;4.60;;
33327;SDS011;19692;52.998;9.116;2023-04-25T07:43:17;12.50;;;4.53;;
33327;SDS011;19692;52.998;9.116;2023-04-25T07:45:45;11.93;;;3.30;;
33327;SDS011;19692;52.998;9.116;2023-04-25T07:48:16;9.63;;;3.50;;
33327;SDS011;19692;52.998;9.116;2023-04-25T07:50:43;13.57;;;4.00;;
33327;SDS011;19692;52.998;9.116;2023-04-25T07:53:09;7.97;;;3.93;;
33327;SDS011;19692;52.998;9.116;2023-04-25T07:55:35;9.77;;;3.43;;
33327;SDS011;19692;52.998;9.116;2023-04-25T07:58:01;12.27;;;4.10;;
33327;SDS011;19692;52.998;9.116;2023-04-25T08:00:28;9.10;;;4.63;;
33327;SDS011;19692;52.998;9.116;2023-04-25T08:02:53;9.87;;;3.73;;
33327;SDS011;19692;52.998;9.116;2023-04-25T08:05:19;8.47;;;3.73;;
33327;SDS011;19692;52.998;9.116;2023-04-25T08:07:45;13.20;;;3.63;;
33327;SDS011;19692;52.998;9.116;2023-04-25T08:10:11;9.57;;;3.97;;
33327;SDS011;19692;52.998;9.116;2023-04-25T08:12:37;7.97;;;3.80;;
33327;SDS011;19692;52.998;9.116;2023-04-25T08:15:03;7.60;;;3.10;;
33327;SDS011;19692;52.998;9.116;2023-04-25T08:17:30;10.20;;;3.90;;
33327;SDS011;19692;52.998;9.116;2023-04-25T08:19:56;9.47;;;4.20;;
33327;SDS011;19692;52.998;9.116;2023-04-25T08:22:22;8.90;;;3.93;;
33327;SDS011;19692;52.998;9.116;2023-04-25T08:24:47;6.57;;;3.20;;
33327;SDS011;19692;52.998;9.116;2023-04-25T08:27:13;7.03;;;3.50;;
33327;SDS011;19692;52.998;9.116;2023-04-25T08:29:41;12.10;;;3.60;;
33327;SDS011;19692;52.998;9.116;2023-04-25T08:32:07;6.63;;;3.13;;
33327;SDS011;19692;52.998;9.116;2023-04-25T08:34:33;12.13;;;3.53;;
33327;SDS011;19692;52.998;9.116;2023-04-25T08:36:59;14.37;;;3.87;;
33327;SDS011;19692;52.998;9.116;2023-04-25T08:39:24;9.47;;;3.83;;
33327;SDS011;19692;52.998;9.116;2023-04-25T08:41:51;8.00;;;3.93;;
33327;SDS011;19692;52.998;9.116;2023-04-25T08:44:17;7.33;;;3.50;;
33327;SDS011;19692;52.998;9.116;2023-04-25T08:46:46;14.00;;;4.80;;
33327;SDS011;19692;52.998;9.116;2023-04-25T08:49:14;12.63;;;4.17;;
33327;SDS011;19692;52.998;9.116;2023-04-25T08:51:46;6.70;;;2.97;;
33327;SDS011;19692;52.998;9.116;2023-04-25T08:54:13;7.93;;;3.10;;
33327;SDS011;19692;52.998;9.116;2023-04-25T08:56:41;8.50;;;3.30;;
33327;SDS011;19692;52.998;9.116;2023-04-25T08:59:10;4.67;;;3.17;;
33327;SDS011;19692;52.998;9.116;2023-04-25T09:01:37;8.80;;;3.70;;
33327;SDS011;19692;52.998;9.116;2023-04-25T09:04:03;6.13;;;3.50;;
33327;SDS011;19692;52.998;9.116;2023-04-25T09:06:29;6.97;;;3.50;;
33327;SDS011;19692;52.998;9.116;2023-04-25T09:09:00;8.50;;;3.30;;
33327;SDS011;19692;52.998;9.116;2023-04-25T09:11:29;7.60;;;3.73;;
33327;SDS011;19692;52.998;9.116;2023-04-25T09:14:11;8.83;;;3.50;;
33327;SDS011;19692;52.998;9.116;2023-04-25T09:19:27;7.33;;;3.07;;
33327;SDS011;19692;52.998;9.116;2023-04-25T09:21:59;5.57;;;2.77;;
33327;SDS011;19692;52.998;9.116;2023-04-25T09:24:31;6.87;;;2.63;;
33327;SDS011;19692;52.998;9.116;2023-04-25T09:27:06;7.80;;;2.87;;
33327;SDS011;19692;52.998;9.116;2023-04-25T09:29:35;6.43;;;2.67;;
33327;SDS011;19692;52.998;9.116;2023-04-25T09:32:22;7.27;;;3.00;;
33327;SDS011;19692;52.998;9.116;2023-04-25T09:34:49;5.77;;;2.87;;
33327;SDS011;19692;52.998;9.116;2023-04-25T09:37:20;6.63;;;2.90;;
33327;SDS011;19692;52.998;9.116;2023-04-25T09:39:58;6.40;;;2.80;;
33327;SDS011;19692;52.998;9.116;2023-04-25T09:42:28;7.50;;;2.90;;
33327;SDS011;19692;52.998;9.116;2023-04-25T09:44:57;6.80;;;2.60;;
33327;SDS011;19692;52.998;9.116;2023-04-25T09:47:24;6.47;;;2.57;;
33327;SDS011;19692;52.998;9.116;2023-04-25T09:49:52;5.83;;;2.77;;
33327;SDS011;19692;52.998;9.116;2023-04-25T09:52:23;6.80;;;2.87;;
33327;SDS011;19692;52.998;9.116;2023-04-25T09:54:50;8.40;;;2.90;;
33327;SDS011;19692;52.998;9.116;2023-04-25T09:57:18;4.93;;;2.70;;
33327;SDS011;19692;52.998;9.116;2023-04-25T10:02:23;7.07;;;2.80;;
33327;SDS011;19692;52.998;9.116;2023-04-25T10:04:52;7.70;;;3.00;;
33327;SDS011;19692;52.998;9.116;2023-04-25T10:07:23;5.83;;;3.10;;
33327;SDS011;19692;52.998;9.116;2023-04-25T10:10:02;8.33;;;2.90;;
33327;SDS011;19692;52.998;9.116;2023-04-25T10:12:30;10.03;;;3.20;;
33327;SDS011;19692;52.998;9.116;2023-04-25T10:14:58;5.97;;;2.77;;
33327;SDS011;19692;52.998;9.116;2023-04-25T10:17:25;6.37;;;2.67;;
33327;SDS011;19692;52.998;9.116;2023-04-25T10:19:52;4.57;;;3.03;;
33327;SDS011;19692;52.998;9.116;2023-04-25T10:22:29;6.33;;;2.77;;
33327;SDS011;19692;52.998;9.116;2023-04-25T10:24:58;6.23;;;3.13;;
33327;SDS011;19692;52.998;9.116;2023-04-25T10:27:24;7.40;;;3.10;;
33327;SDS011;19692;52.998;9.116;2023-04-25T10:30:03;7.40;;;3.33;;
33327;SDS011;19692;52.998;9.116;2023-04-25T10:32:35;4.63;;;2.73;;
33327;SDS011;19692;52.998;9.116;2023-04-25T10:35:14;5.73;;;2.63;;
33327;SDS011;19692;52.998;9.116;2023-04-25T10:40:33;6.17;;;2.80;;
33327;SDS011;19692;52.998;9.116;2023-04-25T10:45:55;4.20;;;2.97;;
33327;SDS011;19692;52.998;9.116;2023-04-25T10:48:30;10.27;;;2.83;;
33327;SDS011;19692;52.998;9.116;2023-04-25T10:51:09;4.20;;;2.73;;
33327;SDS011;19692;52.998;9.116;2023-04-25T10:53:37;3.40;;;2.50;;
33327;SDS011;19692;52.998;9.116;2023-04-25T10:56:10;5.20;;;2.90;;
33327;SDS011;19692;52.998;9.116;2023-04-25T10:58:41;6.03;;;2.60;;
33327;SDS011;19692;52.998;9.116;2023-04-25T11:01:08;4.40;;;2.57;;
33327;SDS011;19692;52.998;9.116;2023-04-25T11:03:38;4.90;;;2.63;;
33327;SDS011;19692;52.998;9.116;2023-04-25T11:06:18;7.23;;;2.90;;
33327;SDS011;19692;52.998;9.116;2023-04-25T11:08:56;6.50;;;2.90;;
33327;SDS011;19692;52.998;9.116;2023-04-25T11:11:25;4.93;;;3.37;;
33327;SDS011;19692;52.998;9.116;2023-04-25T11:13:51;7.33;;;2.63;;
33327;SDS011;19692;52.998;9.116;2023-04-25T11:16:17;4.10;;;2.57;;
33327;SDS011;19692;52.998;9.116;2023-04-25T11:18:43;7.13;;;2.23;;
33327;SDS011;19692;52.998;9.116;2023-04-25T11:21:10;5.50;;;3.20;;
33327;SDS011;19692;52.998;9.116;2023-04-25T11:23:36;6.83;;;2.77;;
33327;SDS011;19692;52.998;9.116;2023-04-25T11:26:02;4.73;;;2.97;;
33327;SDS011;19692;52.998;9.116;2023-04-25T11:28:28;4.53;;;2.67;;
33327;SDS011;19692;52.998;9.116;2023-04-25T11:30:55;5.77;;;3.10;;
33327;SDS011;19692;52.998;9.116;2023-04-25T11:33:24;4.53;;;2.53;;
33327;SDS011;19692;52.998;9.116;2023-04-25T11:35:53;7.03;;;3.17;;
33327;SDS011;19692;52.998;9.116;2023-04-25T11:38:21;2.70;;;2.37;;
33327;SDS011;19692;52.998;9.116;2023-04-25T11:40:54;7.40;;;2.90;;
33327;SDS011;19692;52.998;9.116;2023-04-25T11:43:21;5.63;;;3.17;;
33327;SDS011;19692;52.998;9.116;2023-04-25T11:45:48;6.10;;;2.93;;
33327;SDS011;19692;52.998;9.116;2023-04-25T11:48:15;4.50;;;2.67;;
33327;SDS011;19692;52.998;9.116;2023-04-25T11:50:42;6.77;;;2.60;;
33327;SDS011;19692;52.998;9.116;2023-04-25T11:53:07;9.43;;;3.57;;
33327;SDS011;19692;52.998;9.116;2023-04-25T11:55:33;7.73;;;3.43;;
33327;SDS011;19692;52.998;9.116;2023-04-25T11:58:00;6.93;;;3.53;;
33327;SDS011;19692;52.998;9.116;2023-04-25T12:00:27;11.03;;;3.63;;
33327;SDS011;19692;52.998;9.116;2023-04-25T12:02:53;3.47;;;2.40;;
33327;SDS011;19692;52.998;9.116;2023-04-25T12:05:23;6.20;;;3.13;;
33327;SDS011;19692;52.998;9.116;2023-04-25T12:07:54;5.07;;;3.90;;
33327;SDS011;19692;52.998;9.116;2023-04-25T12:10:20;3.33;;;2.50;;
33327;SDS011;19692;52.998;9.116;2023-04-25T12:12:46;4.57;;;4.13;;
33327;SDS011;19692;52.998;9.116;2023-04-25T12:15:14;4.83;;;2.53;;
33327;SDS011;19692;52.998;9.116;2023-04-25T12:17:45;5.47;;;3.07;;
33327;SDS011;19692;52.998;9.116;2023-04-25T12:20:13;5.20;;;2.83;;
33327;SDS011;19692;52.998;9.116;2023-04-25T12:22:45;4.63;;;2.97;;
33327;SDS011;19692;52.998;9.116;2023-04-25T12:25:58;6.93;;;3.00;;
33327;SDS011;19692;52.998;9.116;2023-04-25T12:30:56;4.37;;;2.80;;
33327;SDS011;19692;52.998;9.116;2023-04-25T12:33:30;12.00;;;4.70;;
33327;SDS011;19692;52.998;9.116;2023-04-25T12:36:01;7.20;;;2.80;;
33327;SDS011;19692;52.998;9.116;2023-04-25T12:38:35;6.20;;;4.73;;
33327;SDS011;19692;52.998;9.116;2023-04-25T12:41:02;4.80;;;4.03;;
33327;SDS011;19692;52.998;9.116;2023-04-25T12:43:28;3.77;;;2.43;;
33327;SDS011;19692;52.998;9.116;2023-04-25T12:45:55;3.77;;;2.43;;
33327;SDS011;19692;52.998;9.116;2023-04-25T12:48:21;5.23;;;3.43;;
33327;SDS011;19692;52.998;9.116;2023-04-25T12:50:48;5.83;;;2.77;;
33327;SDS011;19692;52.998;9.116;2023-04-25T12:53:15;3.77;;;2.77;;
33327;SDS011;19692;52.998;9.116;2023-04-25T12:55:42;6.67;;;2.87;;
33327;SDS011;19692;52.998;9.116;2023-04-25T12:58:10;6.00;;;2.57;;
33327;SDS011;19692;52.998;9.116;2023-04-25T13:00:36;7.93;;;3.07;;
33327;SDS011;19692;52.998;9.116;2023-04-25T13:03:02;5.43;;;2.57;;
33327;SDS011;19692;52.998;9.116;2023-04-25T13:05:29;8.60;;;3.63;;
33327;SDS011;19692;52.998;9.116;2023-04-25T13:07:55;3.07;;;2.60;;
33327;SDS011;19692;52.998;9.116;2023-04-25T13:10:21;7.47;;;3.07;;
33327;SDS011;19692;52.998;9.116;2023-04-25T13:12:47;6.80;;;3.07;;
33327;SDS011;19692;52.998;9.116;2023-04-25T13:15:13;2.53;;;2.10;;
33327;SDS011;19692;52.998;9.116;2023-04-25T13:17:40;4.67;;;2.60;;
33327;SDS011;19692;52.998;9.116;2023-04-25T13:20:07;5.27;;;2.80;;
33327;SDS011;19692;52.998;9.116;2023-04-25T13:22:37;5.70;;;2.70;;
33327;SDS011;19692;52.998;9.116;2023-04-25T13:25:04;4.43;;;2.40;;
33327;SDS011;19692;52.998;9.116;2023-04-25T13:27:32;7.13;;;2.87;;
33327;SDS011;19692;52.998;9.116;2023-04-25T13:30:00;4.60;;;3.70;;
33327;SDS011;19692;52.998;9.116;2023-04-25T13:32:32;5.50;;;2.90;;
33327;SDS011;19692;52.998;9.116;2023-04-25T13:35:02;8.97;;;3.83;;
33327;SDS011;19692;52.998;9.116;2023-04-25T13:37:29;5.10;;;3.23;;
33327;SDS011;19692;52.998;9.116;2023-04-25T13:39:58;4.10;;;2.67;;
33327;SDS011;19692;52.998;9.116;2023-04-25T13:42:30;3.17;;;2.83;;
33327;SDS011;19692;52.998;9.116;2023-04-25T13:44:56;6.03;;;2.97;;
33327;SDS011;19692;52.998;9.116;2023-04-25T13:47:22;7.13;;;2.90;;
33327;SDS011;19692;52.998;9.116;2023-04-25T13:49:48;3.17;;;2.87;;
33327;SDS011;19692;52.998;9.116;2023-04-25T13:52:15;4.90;;;2.47;;
33327;SDS011;19692;52.998;9.116;2023-04-25T13:54:41;6.23;;;2.70;;
33327;SDS011;19692;52.998;9.116;2023-04-25T13:57:06;6.87;;;2.50;;
33327;SDS011;19692;52.998;9.116;2023-04-25T13:59:32;3.20;;;2.30;;
33327;SDS011;19692;52.998;9.116;2023-04-25T14:01:58;5.53;;;2.70;;
33327;SDS011;19692;52.998;9.116;2023-04-25T14:04:24;6.10;;;3.13;;
33327;SDS011;19692;52.998;9.116;2023-04-25T14:06:50;6.13;;;2.70;;
33327;SDS011;19692;52.998;9.116;2023-04-25T14:09:16;8.00;;;3.57;;
33327;SDS011;19692;52.998;9.116;2023-04-25T14:11:44;6.80;;;2.90;;
33327;SDS011;19692;52.998;9.116;2023-04-25T14:14:10;6.17;;;3.83;;
33327;SDS011;19692;52.998;9.116;2023-04-25T14:16:37;4.27;;;3.10;;
33327;SDS011;19692;52.998;9.116;2023-04-25T14:19:03;5.73;;;2.37;;
33327;SDS011;19692;52.998;9.116;2023-04-25T14:21:29;8.27;;;3.40;;
33327;SDS011;19692;52.998;9.116;2023-04-25T14:23:57;3.77;;;2.30;;
33327;SDS011;19692;52.998;9.116;2023-04-25T14:26:23;3.53;;;2.40;;
33327;SDS011;19692;52.998;9.116;2023-04-25T14:28:49;4.43;;;2.67;;
33327;SDS011;19692;52.998;9.116;2023-04-25T14:31:16;3.20;;;2.40;;
33327;SDS011;19692;52.998;9.116;2023-04-25T14:33:42;5.80;;;2.60;;
33327;SDS011;19692;52.998;9.116;2023-04-25T14:36:08;4.70;;;3.10;;
33327;SDS011;19692;52.998;9.116;2023-04-25T14:38:35;6.57;;;2.57;;
33327;SDS011;19692;52.998;9.116;2023-04-25T14:41:00;5.20;;;2.60;;
33327;SDS011;19692;52.998;9.116;2023-04-25T14:43:26;9.20;;;2.47;;
33327;SDS011;19692;52.998;9.116;2023-04-25T14:45:52;8.67;;;2.57;;
33327;SDS011;19692;52.998;9.116;2023-04-25T14:48:18;9.57;;;2.93;;
33327;SDS011;19692;52.998;9.116;2023-04-25T14:50:44;3.70;;;2.30;;
33327;SDS011;19692;52.998;9.116;2023-04-25T14:53:11;5.17;;;2.67;;
33327;SDS011;19692;52.998;9.116;2023-04-25T14:55:37;6.73;;;2.93;;